Impacts TAF Board
For situational awareness. Not to be used for flight planning purposes.
IDs:

KJFK - New York/Kennedy Int, NY, US

Issued at 1949 UTC 21 Sep 2021
Updated at 2323 UTC 21 Sep 2021
Potential Impact None Slight Moderate High
Time2251Z 22/00Z 22/01Z 22/02Z 22/03Z 22/04Z 22/05Z 22/06Z 22/07Z 22/08Z 22/09Z 22/10Z 22/11Z 22/12Z>>
Type OBS PRVL PRVL PRVL PRVL PRVL PRVL PRVL PRVL PRVL PRVL PRVL PRVL
  [TEMP]  
PRVL
  [TEMP]  
VIS 10 >6 >6 >6 >6 >6 >6 >6 >6 >6 >6 >6 >6 >6
CIG 55 35 35 35 -- -- -- -- -- 15 15 15 15
  [8]  
15
  [8]  
Cover BKN BKN BKN BKN SCT SCT SCT SCT SCT BKN BKN BKN BKN
  [BKN]  
BKN
  [BKN]  
FltCat VFR VFR VFR VFR VFR VFR VFR VFR VFR MVFR MVFR MVFR MVFR
  [IFR]  
MVFR
  [IFR]  
WX -- -- -- -- -- -- -- -- -- -- -- -- --
  [--]  
--
  [--]  
WDir 100 120 120 120 120 120 120 120 120 130 130 130 130
[130]
130
[130]
WSpd 10 10 10 10 7 7 7 7 7 8 8 8 8
  [8]  
8
  [8]  
WGst -- -- -- -- -- -- -- -- -- -- -- -- --
  [--]  
--
  [--]  
Raw TAF
KJFK 211949Z 2120/2224 12010KT P6SM SCT025 BKN035
  FM220300 12007KT P6SM FEW025 SCT040
  FM220800 13008KT P6SM SCT008 BKN015
  TEMPO 2211/2213 BKN008 BKN015
  FM221400 14012G19KT P6SM BKN020
  FM221600 15016G23KT P6SM SCT025 SCT050 BKN250


Raw METAR
KJFK 212251Z 10010KT 10SM FEW022 SCT041 BKN055 BKN250 22/19 A3028 RMK AO2 SLP253 T02220194
KJFK 212151Z 12009KT 10SM FEW022 FEW035 SCT050 BKN250 23/19 A3029 RMK AO2 SLP256 T02280189
KJFK 212051Z 12009KT 10SM SCT022 BKN035 BKN060 BKN250 24/19 A3030 RMK AO2 SLP261 T02390189 58007

METAR Board
Radar Display
Forecast Discussion
For situational awareness. Not to be used for flight planning purposes.